This is the latest recevied weather packets stored in our database for station/object AA7DG. If no packets are shown the sender has not sent any weather packets the latest 10 day(s).
| Time | Temp. | Humidity | Pressure | Rain* | Wind** | Luminosity | Snow |
|---|---|---|---|---|---|---|---|
| 1777239606 | 15° C | 23% | 1008.8 hPa | - | - | - | - |
| 1777237506 | 15.56° C | 24% | 1008.8 hPa | - | - | - | - |
| 1777236301 | 17.78° C | 23% | 1008.7 hPa | - | - | - | - |
| 1777236001 | 17.78° C | 24% | 1008.6 hPa | - | - | - | - |
| 1777233601 | 14.44° C | 28% | 1008.8 hPa | - | - | - | - |
| 1777231807 | 14.44° C | 29% | 1008.8 hPa | - | - | - | - |
| 1777228506 | 14.44° C | 33% | 1008.8 hPa | - | - | - | - |
| 1777226701 | 14.44° C | 33% | 1008.9 hPa | - | - | - | - |
| 1777223100 | 13.33° C | 39% | 1009.1 hPa | - | - | - | - |
| 1777222207 | 12.22° C | 48% | 1009.1 hPa | - | - | - | - |
| 1777220101 | 8.89° C | 61% | 1009.1 hPa | - | - | - | - |
| 1777219202 | 8.33° C | 63% | 1009.1 hPa | - | - | - | - |
| 1777218001 | 7.78° C | 65% | 1009.5 hPa | - | - | - | - |
| 1777215601 | 6.11° C | 73% | 1009.5 hPa | - | - | - | - |
| 1777215001 | 5.56° C | 74% | 1009.5 hPa | - | - | - | - |
| 1777212602 | 2.22° C | 88% | 1009.5 hPa | - | - | - | - |
| 1777211401 | 1.11° C | 89% | 1009.4 hPa | - | - | - | - |
| 1777210506 | 1.11° C | 89% | 1009.1 hPa | - | - | - | - |
| 1777210201 | 1.11° C | 88% | 1009.1 hPa | - | - | - | - |
| 1777209001 | 1.11° C | 88% | 1009.1 hPa | - | - | - | - |
| 1777208700 | 1.11° C | 88% | 1009.1 hPa | - | - | - | - |
| 1777206906 | 1.67° C | 86% | 1009.1 hPa | - | - | - | - |
| 1777206011 | 2.22° C | 84% | 1008.9 hPa | - | - | - | - |
| 1777205107 | 2.78° C | 83% | 1009.1 hPa | - | - | - | - |
| 1777202101 | 3.89° C | 80% | 1009.1 hPa | - | - | - | - |
* Rain since midnight (hover to see other rain measurements)
** Current wind speed in m/s (hover to see current wind gust speed)